createdAt,value
2022-10-26T00:01:21.669Z,13.60
2022-10-26T00:03:49.393Z,12.77
2022-10-26T00:06:20.936Z,11.68
2022-10-26T00:08:49.519Z,12.27
2022-10-26T00:11:18.440Z,13.68
2022-10-26T00:13:47.448Z,12.55
2022-10-26T00:16:22.419Z,14.25
2022-10-26T00:18:50.820Z,13.13
2022-10-26T00:21:19.562Z,14.73
2022-10-26T00:23:46.998Z,13.48
2022-10-26T00:26:14.746Z,14.13
2022-10-26T00:28:42.284Z,14.52
2022-10-26T00:31:14.867Z,12.63
2022-10-26T00:33:42.481Z,14.95
2022-10-26T00:36:10.639Z,13.35
2022-10-26T00:38:38.630Z,11.75
2022-10-26T00:41:06.582Z,12.68
2022-10-26T00:43:34.697Z,11.73
2022-10-26T00:46:05.747Z,11.35
2022-10-26T00:48:42.561Z,11.68
2022-10-26T00:51:20.274Z,16.40
2022-10-26T00:53:47.968Z,13.70
2022-10-26T00:56:16.850Z,12.40
2022-10-26T00:58:45.119Z,13.98
2022-10-26T01:01:12.864Z,15.63
2022-10-26T01:03:40.515Z,20.40
2022-10-26T01:06:09.819Z,17.20
2022-10-26T01:08:37.744Z,17.77
2022-10-26T01:11:06.486Z,15.18
2022-10-26T01:13:47.065Z,24.02
2022-10-26T01:16:42.675Z,75.57
2022-10-26T01:19:52.053Z,56.33
2022-10-26T01:22:54.882Z,65.97
2022-10-26T01:25:46.149Z,92.75
2022-10-26T01:29:07.575Z,33.88
2022-10-26T01:32:01.019Z,90.57
2022-10-26T01:34:41.707Z,58.05
2022-10-26T01:37:24.084Z,48.83
2022-10-26T01:40:09.482Z,35.03
2022-10-26T01:42:41.527Z,36.70
2022-10-26T01:45:12.449Z,52.55
2022-10-26T01:47:41.634Z,40.15
2022-10-26T01:50:10.971Z,47.03
2022-10-26T01:52:38.640Z,28.50
2022-10-26T01:55:46.279Z,34.50
2022-10-26T01:58:30.271Z,22.13
2022-10-26T02:01:35.090Z,70.35
2022-10-26T02:04:16.515Z,76.70
2022-10-26T02:07:15.625Z,88.80
2022-10-26T02:09:57.299Z,120.68
2022-10-26T02:13:04.314Z,72.25
2022-10-26T02:15:35.996Z,60.40
2022-10-26T02:18:33.952Z,29.58
2022-10-26T02:21:09.983Z,33.83
2022-10-26T02:23:41.617Z,67.38
2022-10-26T02:26:12.304Z,38.13
2022-10-26T02:28:45.585Z,42.15
2022-10-26T02:31:16.299Z,96.77
2022-10-26T02:33:53.927Z,65.22
2022-10-26T02:36:30.136Z,91.90
2022-10-26T02:38:59.433Z,48.95
2022-10-26T02:41:29.589Z,65.50
2022-10-26T02:44:40.170Z,46.28
2022-10-26T02:47:07.675Z,57.67
2022-10-26T02:49:35.487Z,73.78
2022-10-26T02:52:15.808Z,60.35
2022-10-26T02:54:58.199Z,43.47
2022-10-26T02:57:41.843Z,67.10
2022-10-26T03:00:16.550Z,69.73
2022-10-26T03:02:48.506Z,50.85
2022-10-26T03:05:22.773Z,92.95
2022-10-26T03:07:50.224Z,67.47
2022-10-26T03:10:17.987Z,68.78
2022-10-26T03:12:46.027Z,92.97
2022-10-26T03:15:14.103Z,60.72
2022-10-26T03:17:41.593Z,84.50
2022-10-26T03:20:10.008Z,45.80
2022-10-26T03:22:37.400Z,42.97
2022-10-26T03:25:05.487Z,44.97
2022-10-26T03:27:32.882Z,61.38
2022-10-26T03:30:00.286Z,40.80
2022-10-26T03:32:27.748Z,76.55
2022-10-26T03:34:55.212Z,68.70
2022-10-26T03:37:22.635Z,53.03
2022-10-26T03:39:51.046Z,26.95
2022-10-26T03:42:18.562Z,36.10
2022-10-26T03:44:47.413Z,38.97
2022-10-26T03:47:14.860Z,99.10
2022-10-26T03:49:42.303Z,43.50
2022-10-26T03:52:09.831Z,61.92
2022-10-26T03:54:37.398Z,47.28
2022-10-26T03:57:04.972Z,34.58
2022-10-26T03:59:32.484Z,85.80
2022-10-26T04:02:00.046Z,97.82
2022-10-26T04:04:27.636Z,59.92
2022-10-26T04:06:55.123Z,35.28
2022-10-26T04:09:22.854Z,30.08
2022-10-26T04:11:53.229Z,56.28
2022-10-26T04:14:20.809Z,50.40
2022-10-26T04:16:48.347Z,51.78
2022-10-26T04:19:16.491Z,31.25
2022-10-26T04:21:44.051Z,43.03
2022-10-26T04:24:11.951Z,17.52
2022-10-26T04:26:39.498Z,28.17
2022-10-26T04:29:12.048Z,27.65
2022-10-26T04:31:39.829Z,27.15
2022-10-26T04:34:07.352Z,57.30
2022-10-26T04:36:35.247Z,60.85
2022-10-26T04:53:46.910Z,17.90
2022-10-26T04:56:14.503Z,11.32
2022-10-26T04:58:42.346Z,17.08
2022-10-26T05:01:10.044Z,25.70
2022-10-26T05:03:42.850Z,19.70
2022-10-26T05:06:13.260Z,23.25
2022-10-26T05:08:40.741Z,10.52
2022-10-26T05:11:08.187Z,18.13
2022-10-26T05:13:35.643Z,13.50
2022-10-26T05:16:03.254Z,16.38
2022-10-26T05:18:30.782Z,14.48
2022-10-26T05:20:58.246Z,31.52
2022-10-26T05:23:26.212Z,40.63
2022-10-26T05:25:55.439Z,65.95
2022-10-26T05:28:23.509Z,67.43
2022-10-26T05:31:06.622Z,53.20
2022-10-26T05:33:37.774Z,45.83
2022-10-26T05:36:06.205Z,40.58
2022-10-26T05:38:33.997Z,31.55
2022-10-26T05:41:01.983Z,98.40
2022-10-26T05:43:30.486Z,88.63
2022-10-26T05:45:57.971Z,68.35
2022-10-26T05:48:25.605Z,67.18
2022-10-26T05:51:02.208Z,37.97
2022-10-26T05:53:30.047Z,18.48
2022-10-26T05:55:58.210Z,20.60
2022-10-26T05:58:26.276Z,29.15
2022-10-26T06:04:27.987Z,30.73
2022-10-26T06:06:56.516Z,20.77
2022-10-26T06:09:24.601Z,23.98
2022-10-26T06:11:59.387Z,23.45
2022-10-26T06:14:27.182Z,16.98
2022-10-26T06:17:16.422Z,26.30
2022-10-26T06:20:28.400Z,20.70
2022-10-26T06:23:52.257Z,14.70
2022-10-26T06:26:54.002Z,24.77
2022-10-26T06:30:02.593Z,21.20
2022-10-26T06:32:30.857Z,18.17
2022-10-26T06:35:29.442Z,15.50
2022-10-26T06:38:01.051Z,12.15
2022-10-26T06:40:34.790Z,25.95
2022-10-26T06:43:02.527Z,14.07
2022-10-26T06:45:30.472Z,12.13
2022-10-26T06:48:11.346Z,15.20
2022-10-26T06:50:51.480Z,13.07
2022-10-26T06:53:31.601Z,23.10
2022-10-26T06:56:02.953Z,14.63
2022-10-26T06:58:35.715Z,21.08
2022-10-26T07:01:03.513Z,15.32
2022-10-26T07:03:31.376Z,11.48
2022-10-26T07:05:59.044Z,16.08
2022-10-26T07:08:26.644Z,12.43
2022-10-26T07:10:54.262Z,10.70
2022-10-26T07:16:13.498Z,12.00
2022-10-26T07:19:29.595Z,12.07
2022-10-26T07:22:02.420Z,18.00
2022-10-26T09:02:42.434Z,18.42
2022-10-26T09:05:33.425Z,19.20
2022-10-26T09:08:24.491Z,15.27
2022-10-26T09:11:24.468Z,14.25
2022-10-26T09:14:17.707Z,13.98
2022-10-26T09:17:05.654Z,14.15
2022-10-26T09:20:18.108Z,14.30
2022-10-26T09:22:57.613Z,15.85
2022-10-26T09:25:30.191Z,15.63
2022-10-26T09:28:03.133Z,16.75
2022-10-26T09:30:31.013Z,20.92
2022-10-26T09:33:12.679Z,21.13
2022-10-26T09:36:01.835Z,17.85
2022-10-26T09:38:53.070Z,18.13
2022-10-26T09:41:45.148Z,18.15
2022-10-26T09:44:37.184Z,17.23
2022-10-26T09:47:40.032Z,19.45
2022-10-26T09:50:10.743Z,19.90
2022-10-26T09:52:38.597Z,18.08
2022-10-26T09:55:07.152Z,19.00
2022-10-26T09:57:35.791Z,18.38
2022-10-26T10:00:03.999Z,24.08
2022-10-26T10:02:44.063Z,19.58
2022-10-26T10:05:52.525Z,19.80
2022-10-26T10:08:26.137Z,19.50
2022-10-26T10:11:15.501Z,22.92
2022-10-26T10:13:46.839Z,20.75
2022-10-26T10:16:23.778Z,21.95
2022-10-26T10:18:59.158Z,22.23
2022-10-26T10:21:49.479Z,20.65
2022-10-26T10:24:41.808Z,24.65
2022-10-26T10:27:17.541Z,20.27
2022-10-26T10:29:51.226Z,18.95
2022-10-26T10:32:27.898Z,28.98
2022-10-26T10:35:23.814Z,19.40
2022-10-26T10:37:52.637Z,22.05
2022-10-26T10:40:30.982Z,22.95
2022-10-26T10:43:15.589Z,20.88
2022-10-26T10:48:29.520Z,20.15
2022-10-26T10:51:15.605Z,18.35
2022-10-26T10:53:49.600Z,21.83
2022-10-26T10:56:42.275Z,21.55
2022-10-26T10:59:16.267Z,23.13
2022-10-26T11:01:55.213Z,21.05
2022-10-26T11:05:02.228Z,19.80
2022-10-26T11:07:35.567Z,19.80
2022-10-26T11:10:04.995Z,17.30
2022-10-26T11:12:42.528Z,19.88
2022-10-26T11:15:19.077Z,19.90
2022-10-26T11:18:10.382Z,20.25
2022-10-26T11:20:45.961Z,19.20
2022-10-26T11:23:16.546Z,17.38
2022-10-26T11:25:56.892Z,18.85
2022-10-26T11:28:54.182Z,22.90
2022-10-26T11:31:29.822Z,23.20
2022-10-26T11:34:36.096Z,22.20
2022-10-26T11:37:13.846Z,19.63
2022-10-26T11:40:30.514Z,19.70
2022-10-26T11:43:40.207Z,19.30
2022-10-26T11:46:19.254Z,23.02
2022-10-26T11:49:01.700Z,20.77
2022-10-26T11:52:08.832Z,19.83
2022-10-26T11:54:45.124Z,21.17
2022-10-26T11:57:14.246Z,22.98
2022-10-26T11:59:53.566Z,22.17
2022-10-26T12:02:27.660Z,30.23
2022-10-26T12:07:40.425Z,21.42
2022-10-26T12:10:33.495Z,21.25
2022-10-26T12:14:05.380Z,23.17
2022-10-26T12:17:09.358Z,25.02
2022-10-26T12:20:05.648Z,27.05
2022-10-26T12:22:43.736Z,28.67
2022-10-26T12:25:15.363Z,24.10
2022-10-26T12:27:45.519Z,24.13
2022-10-26T12:30:12.936Z,23.58
2022-10-26T12:32:48.519Z,21.23
2022-10-26T12:35:38.738Z,26.58
2022-10-26T12:38:26.167Z,25.67
2022-10-26T12:41:09.087Z,24.05
2022-10-26T12:43:42.454Z,26.52
2022-10-26T13:31:31.878Z,21.80
2022-10-26T13:34:21.361Z,25.80
2022-10-26T13:37:20.461Z,24.77
2022-10-26T13:39:50.442Z,22.67
2022-10-26T13:42:30.288Z,20.88
2022-10-26T13:45:07.927Z,24.08
2022-10-26T13:48:01.953Z,18.38
2022-10-26T13:50:38.557Z,24.63
2022-10-26T13:53:23.416Z,15.77
2022-10-26T13:56:06.267Z,18.88
2022-10-26T13:58:43.467Z,18.20
2022-10-26T14:01:11.830Z,22.20
2022-10-26T14:03:41.170Z,20.13
2022-10-26T14:06:17.620Z,20.52
2022-10-26T14:08:47.615Z,19.52
2022-10-26T14:11:31.004Z,19.23
2022-10-26T14:13:58.795Z,21.20
2022-10-26T14:16:30.649Z,12.93
2022-10-26T14:18:58.430Z,9.75
2022-10-26T14:21:26.149Z,10.38
2022-10-26T14:23:58.999Z,10.82
2022-10-26T14:26:31.454Z,9.40
2022-10-26T14:29:01.784Z,11.35
2022-10-26T14:31:34.640Z,10.23
2022-10-26T14:34:05.687Z,9.68
2022-10-26T14:37:01.197Z,9.60
2022-10-26T14:39:48.683Z,9.30
2022-10-26T14:42:41.233Z,12.63
2022-10-26T14:45:29.886Z,8.98
2022-10-26T14:48:27.725Z,11.10
2022-10-26T14:53:51.710Z,10.57
2022-10-26T14:56:32.164Z,12.25
2022-10-26T14:59:00.150Z,13.18
2022-10-26T15:01:36.294Z,12.40
2022-10-26T15:04:23.092Z,12.38
2022-10-26T15:09:43.961Z,11.55
2022-10-26T15:12:37.250Z,16.65
2022-10-26T15:15:17.838Z,13.05
2022-10-26T15:17:55.928Z,12.32
2022-10-26T15:20:31.351Z,11.93
2022-10-26T15:23:02.008Z,12.82
2022-10-26T15:25:34.105Z,11.15
2022-10-26T15:28:12.559Z,14.13
2022-10-26T15:31:01.235Z,12.57
2022-10-26T15:33:29.640Z,12.75
2022-10-26T15:36:18.360Z,12.68
2022-10-26T15:38:48.256Z,13.57
2022-10-26T15:41:31.268Z,16.75
2022-10-26T15:44:06.129Z,24.10
2022-10-26T15:46:36.304Z,32.45
2022-10-26T15:49:09.601Z,31.95
2022-10-26T15:51:39.072Z,29.37
2022-10-26T15:54:06.919Z,29.10
2022-10-26T15:56:34.601Z,21.08
2022-10-26T15:59:02.073Z,19.65
2022-10-26T16:01:31.576Z,21.33
2022-10-26T16:04:00.290Z,17.52
2022-10-26T16:06:37.794Z,16.98
2022-10-26T16:57:11.261Z,28.17
2022-10-26T18:06:54.202Z,17.73
2022-10-26T18:09:24.466Z,19.27
2022-10-26T18:11:54.914Z,29.02
2022-10-26T18:14:23.441Z,31.88
2022-10-26T18:16:51.170Z,28.65
2022-10-26T18:19:20.981Z,26.67
2022-10-26T18:21:48.500Z,18.85
2022-10-26T18:24:17.040Z,19.73
2022-10-26T18:26:44.945Z,17.35
2022-10-26T18:29:14.058Z,15.45
2022-10-26T18:31:41.688Z,13.68
2022-10-26T18:34:11.504Z,13.80
2022-10-26T18:36:39.842Z,16.38
2022-10-26T18:39:11.535Z,17.60
2022-10-26T18:41:39.257Z,20.75
2022-10-26T18:44:06.787Z,23.98
2022-10-26T18:46:45.563Z,24.67
2022-10-26T18:49:16.660Z,26.85
2022-10-26T18:51:44.182Z,24.55
2022-10-26T18:54:11.953Z,26.23
2022-10-26T18:56:39.794Z,29.10
2022-10-26T18:59:08.185Z,28.38
2022-10-26T19:01:40.073Z,32.83
2022-10-26T19:04:10.179Z,33.13
2022-10-26T19:06:46.672Z,29.95
2022-10-26T19:09:19.336Z,29.73
2022-10-26T19:11:46.872Z,30.83
2022-10-26T19:14:14.509Z,31.38
2022-10-26T19:16:46.700Z,30.92
2022-10-26T19:19:16.457Z,32.83
2022-10-26T19:21:45.452Z,29.73
2022-10-26T19:24:20.056Z,29.77
2022-10-26T19:26:50.507Z,37.50
2022-10-26T19:29:19.714Z,46.35
2022-10-26T19:31:51.163Z,38.20
2022-10-26T19:34:19.204Z,35.53
2022-10-26T19:36:47.443Z,38.00
2022-10-26T19:39:17.420Z,30.70
2022-10-26T19:41:46.383Z,27.95
2022-10-26T19:44:15.069Z,25.92
2022-10-26T19:46:43.877Z,26.00
2022-10-26T19:49:13.058Z,23.95
2022-10-26T19:51:40.723Z,23.95
2022-10-26T19:54:08.759Z,27.90
2022-10-26T19:56:37.741Z,34.13
2022-10-26T19:59:05.576Z,28.15
2022-10-26T20:01:33.597Z,30.85
2022-10-26T20:04:02.921Z,34.03
2022-10-26T20:06:31.330Z,31.23
2022-10-26T20:09:00.184Z,31.50
2022-10-26T20:11:28.047Z,31.23
2022-10-26T20:13:56.606Z,28.73
2022-10-26T20:16:24.541Z,31.15
2022-10-26T20:18:52.074Z,54.72
2022-10-26T20:21:21.056Z,43.47
2022-10-26T20:23:48.520Z,35.75
2022-10-26T20:26:19.229Z,41.10
2022-10-26T20:28:49.047Z,35.67
2022-10-26T20:31:19.453Z,38.40
2022-10-26T20:33:55.443Z,49.15
2022-10-26T20:36:23.048Z,42.58
2022-10-26T20:38:51.085Z,41.72
2022-10-26T20:41:19.029Z,39.25
2022-10-26T20:43:46.873Z,38.63
2022-10-26T20:46:26.395Z,32.25
2022-10-26T20:48:55.365Z,34.25
2022-10-26T20:52:08.175Z,28.60
2022-10-26T20:54:39.198Z,26.20
2022-10-26T20:57:12.759Z,23.75
2022-10-26T20:59:48.022Z,23.27
2022-10-26T21:02:17.939Z,25.15
2022-10-26T21:04:46.020Z,21.00
2022-10-26T21:07:13.475Z,24.02
2022-10-26T21:09:40.957Z,23.60
2022-10-26T21:12:08.584Z,21.48
2022-10-26T21:14:40.819Z,21.92
2022-10-26T21:17:09.545Z,22.77
2022-10-26T21:19:37.846Z,18.63
2022-10-26T21:22:08.137Z,20.73
2022-10-26T21:27:04.021Z,20.65
2022-10-26T21:29:31.478Z,22.58
2022-10-26T21:31:59.039Z,23.20
2022-10-26T21:34:26.529Z,20.30
2022-10-26T21:36:54.007Z,19.98
2022-10-26T21:39:21.421Z,22.52
2022-10-26T21:41:48.842Z,22.35
2022-10-26T21:44:32.665Z,20.83
2022-10-26T21:47:04.518Z,22.50
2022-10-26T21:49:32.165Z,22.42
2022-10-26T21:51:59.597Z,22.85
2022-10-26T21:54:27.010Z,27.92
2022-10-26T21:56:54.589Z,23.50
2022-10-26T21:59:22.156Z,22.17
2022-10-26T22:01:49.711Z,20.13
2022-10-26T22:04:17.347Z,18.00
2022-10-26T22:06:44.855Z,20.02
2022-10-26T22:09:12.384Z,20.52
2022-10-26T22:11:39.783Z,20.73
2022-10-26T22:14:07.280Z,21.30
2022-10-26T22:16:34.920Z,20.75
2022-10-26T22:19:07.927Z,23.90
2022-10-26T22:21:39.734Z,26.40
2022-10-26T22:24:08.127Z,23.88
2022-10-26T22:26:37.072Z,25.67
2022-10-26T22:29:05.483Z,21.83
2022-10-26T22:31:37.329Z,25.10
2022-10-26T22:34:08.666Z,22.05
2022-10-26T22:36:36.441Z,24.60
2022-10-26T22:39:07.687Z,23.55
2022-10-26T22:41:35.114Z,22.52
2022-10-26T22:44:02.493Z,28.70
2022-10-26T22:46:30.177Z,23.38
2022-10-26T22:49:02.462Z,27.23
2022-10-26T22:51:37.689Z,27.85
2022-10-26T22:54:06.051Z,30.92
2022-10-26T22:56:36.468Z,33.78
2022-10-26T22:59:05.548Z,32.15
2022-10-26T23:01:37.616Z,31.80
2022-10-26T23:04:05.549Z,30.63
2022-10-26T23:06:33.728Z,35.55
2022-10-26T23:09:01.302Z,32.13
2022-10-26T23:11:30.307Z,29.45
2022-10-26T23:14:01.269Z,31.52
2022-10-26T23:16:30.376Z,30.90
2022-10-26T23:18:59.515Z,28.15
2022-10-26T23:21:29.523Z,28.35
2022-10-26T23:23:57.964Z,30.67
2022-10-26T23:26:25.710Z,36.42
2022-10-26T23:28:53.147Z,25.23
2022-10-26T23:31:27.347Z,27.42
2022-10-26T23:36:24.712Z,24.27
2022-10-26T23:38:52.133Z,28.48
2022-10-26T23:41:19.608Z,24.23
2022-10-26T23:43:47.124Z,27.75
2022-10-26T23:48:56.064Z,25.30
2022-10-26T23:51:23.606Z,26.88
2022-10-26T23:53:51.067Z,28.80
2022-10-26T23:56:18.523Z,31.92
2022-10-26T23:58:50.977Z,28.88
